createdAt,value
2023-12-11T00:00:20.167Z,100952.28
2023-12-11T00:02:48.551Z,100952.41
2023-12-11T00:05:15.313Z,100964.09
2023-12-11T00:07:41.974Z,100969.72
2023-12-11T00:10:09.208Z,100980.63
2023-12-11T00:12:35.934Z,100984.44
2023-12-11T00:15:02.503Z,100995.00
2023-12-11T00:17:29.790Z,100987.72
2023-12-11T00:19:56.511Z,100976.97
2023-12-11T00:22:23.171Z,100966.63
2023-12-11T00:24:49.748Z,100955.34
2023-12-11T00:27:16.252Z,100947.34
2023-12-11T00:29:42.734Z,100948.22
2023-12-11T00:32:09.704Z,100946.59
2023-12-11T00:34:36.346Z,100956.06
2023-12-11T00:37:02.990Z,100944.41
2023-12-11T00:39:29.654Z,100926.75
2023-12-11T00:41:56.208Z,100917.47
2023-12-11T00:44:22.684Z,100922.22
2023-12-11T00:46:49.183Z,100928.06
2023-12-11T00:49:15.797Z,100936.25
2023-12-11T00:51:42.413Z,100941.16
2023-12-11T00:54:08.976Z,100934.59
2023-12-11T00:56:35.472Z,100907.81
2023-12-11T00:59:02.049Z,100900.00
2023-12-11T01:01:28.646Z,100875.78
2023-12-11T01:03:55.290Z,100866.88
2023-12-11T01:06:21.861Z,100860.69
2023-12-11T01:08:48.357Z,100868.75
2023-12-11T01:11:14.846Z,100912.97
2023-12-11T01:13:41.836Z,100923.69
2023-12-11T01:16:08.559Z,100926.44
2023-12-11T01:18:35.407Z,100920.41
2023-12-11T01:21:02.086Z,100925.91
2023-12-11T01:23:28.618Z,100936.09
2023-12-11T01:25:55.134Z,100940.25
2023-12-11T01:28:21.682Z,100953.91
2023-12-11T01:30:48.177Z,100963.00
2023-12-11T01:33:14.821Z,100957.34
2023-12-11T01:35:41.478Z,100947.34
2023-12-11T01:38:07.973Z,100946.25
2023-12-11T01:40:35.145Z,100944.03
2023-12-11T01:43:19.749Z,100922.22
2023-12-11T01:46:04.637Z,100919.88
2023-12-11T01:48:31.976Z,100919.69
2023-12-11T01:50:59.065Z,100901.47
2023-12-11T01:53:27.471Z,100909.28
2023-12-11T01:55:54.124Z,100902.88
2023-12-11T01:58:20.647Z,100893.78
2023-12-11T02:00:47.814Z,100901.06
2023-12-11T02:03:14.342Z,100896.69
2023-12-11T02:05:44.061Z,100886.16
2023-12-11T02:08:11.474Z,100910.53
2023-12-11T02:10:38.003Z,100924.41
2023-12-11T02:13:05.160Z,100917.84
2023-12-11T02:15:58.069Z,100908.34
2023-12-11T02:18:24.956Z,100910.00
2023-12-11T02:20:51.544Z,100920.41
2023-12-11T02:23:35.020Z,100921.28
2023-12-11T02:26:07.981Z,100908.19
2023-12-11T02:28:34.948Z,100885.03
2023-12-11T02:31:01.495Z,100870.84
2023-12-11T02:33:28.052Z,100894.69
2023-12-11T02:35:54.646Z,100918.94
2023-12-11T02:38:21.183Z,100925.13
2023-12-11T02:40:47.756Z,100910.03
2023-12-11T02:43:14.369Z,100890.56
2023-12-11T02:45:43.005Z,100887.84
2023-12-11T02:48:09.925Z,100890.38
2023-12-11T02:50:36.509Z,100876.75
2023-12-11T02:53:05.105Z,100858.00
2023-12-11T02:55:31.918Z,100834.88
2023-12-11T02:58:02.837Z,100806.31
2023-12-11T03:00:30.890Z,100787.91
2023-12-11T03:02:58.236Z,100791.94
2023-12-11T03:05:24.781Z,100806.31
2023-12-11T03:07:51.387Z,100817.59
2023-12-11T03:10:18.034Z,100813.06
2023-12-11T03:12:44.660Z,100801.81
2023-12-11T03:15:11.496Z,100789.81
2023-12-11T03:17:38.076Z,100792.53
2023-12-11T03:20:06.587Z,100801.06
2023-12-11T03:22:33.225Z,100792.69
2023-12-11T03:24:59.763Z,100791.22
2023-12-11T03:27:26.357Z,100792.13
2023-12-11T03:29:52.979Z,100795.59
2023-12-11T03:32:19.477Z,100801.78
2023-12-11T03:34:46.012Z,100802.31
2023-12-11T03:37:13.819Z,100800.50
2023-12-11T03:39:43.519Z,100793.06
2023-12-11T03:42:10.555Z,100795.97
2023-12-11T03:44:37.219Z,100805.59
2023-12-11T03:47:03.971Z,100815.78
2023-12-11T03:49:30.563Z,100812.38
2023-12-11T03:51:57.145Z,100811.25
2023-12-11T03:54:23.652Z,100820.69
2023-12-11T03:56:50.173Z,100841.81
2023-12-11T03:59:16.698Z,100856.88
2023-12-11T04:01:43.330Z,100844.69
2023-12-11T04:04:10.229Z,100830.84
2023-12-11T04:06:36.824Z,100805.19
2023-12-11T04:09:05.780Z,100783.44
2023-12-11T04:11:33.450Z,100775.03
2023-12-11T04:13:59.959Z,100770.84
2023-12-11T04:16:26.470Z,100795.25
2023-12-11T04:18:53.672Z,100819.47
2023-12-11T04:21:21.901Z,100819.50
2023-12-11T04:23:48.394Z,100809.66
2023-12-11T04:26:14.954Z,100814.72
2023-12-11T04:28:41.440Z,100836.38
2023-12-11T04:31:08.094Z,100845.13
2023-12-11T04:33:38.763Z,100857.50
2023-12-11T04:36:10.015Z,100861.91
2023-12-11T04:38:36.661Z,100859.69
2023-12-11T04:41:04.022Z,100849.50
2023-12-11T04:43:32.075Z,100838.78
2023-12-11T04:46:00.010Z,100840.81
2023-12-11T04:48:27.143Z,100832.44
2023-12-11T04:50:53.735Z,100838.41
2023-12-11T04:53:20.253Z,100843.72
2023-12-11T04:55:46.983Z,100836.63
2023-12-11T04:58:13.624Z,100846.97
2023-12-11T05:00:40.362Z,100870.44
2023-12-11T05:03:06.931Z,100870.06
2023-12-11T05:05:34.951Z,100869.19
2023-12-11T05:08:01.572Z,100855.94
2023-12-11T05:10:28.342Z,100859.38
2023-12-11T05:12:55.204Z,100853.00
2023-12-11T05:15:21.753Z,100854.63
2023-12-11T05:17:48.267Z,100836.78
2023-12-11T05:20:17.467Z,100822.56
2023-12-11T05:22:44.097Z,100816.94
2023-12-11T05:25:10.893Z,100833.88
2023-12-11T05:27:37.458Z,100836.25
2023-12-11T05:30:04.487Z,100845.53
2023-12-11T05:32:31.093Z,100852.06
2023-12-11T05:34:57.649Z,100863.31
2023-12-11T05:37:24.167Z,100832.97
2023-12-11T05:39:57.941Z,100825.53
2023-12-11T05:42:37.157Z,100836.78
2023-12-11T05:45:04.051Z,100844.00
2023-12-11T05:47:30.812Z,100844.03
2023-12-11T05:49:57.628Z,100837.66
2023-12-11T05:52:24.217Z,100844.75
2023-12-11T05:54:50.741Z,100844.00
2023-12-11T05:57:17.998Z,100828.72
2023-12-11T05:59:45.052Z,100820.00
2023-12-11T06:02:11.538Z,100848.03
2023-12-11T06:04:38.098Z,100846.25
2023-12-11T06:07:05.336Z,100843.34
2023-12-11T06:09:32.505Z,100849.88
2023-12-11T06:11:58.981Z,100848.03
2023-12-11T06:14:25.591Z,100863.88
2023-12-11T06:16:52.087Z,100874.25
2023-12-11T06:19:18.675Z,100864.97
2023-12-11T06:21:45.255Z,100866.78
2023-12-11T06:24:11.777Z,100850.44
2023-12-11T06:26:43.204Z,100850.59
2023-12-11T06:29:09.848Z,100846.28
2023-12-11T06:31:36.366Z,100834.47
2023-12-11T06:34:03.109Z,100835.72
2023-12-11T06:36:29.976Z,100843.53
2023-12-11T06:38:56.852Z,100847.00
2023-12-11T06:41:23.436Z,100841.91
2023-12-11T06:43:54.106Z,100845.22
2023-12-11T06:46:20.921Z,100836.47
2023-12-11T06:48:47.696Z,100830.63
2023-12-11T06:51:17.363Z,100817.91
2023-12-11T06:53:44.355Z,100834.47
2023-12-11T06:56:18.234Z,100839.03
2023-12-11T06:58:44.721Z,100832.84
2023-12-11T07:01:11.472Z,100828.09
2023-12-11T07:03:39.663Z,100829.56
2023-12-11T07:06:06.639Z,100826.66
2023-12-11T07:08:33.200Z,100831.75
2023-12-11T07:10:59.724Z,100843.00
2023-12-11T07:13:26.484Z,100845.72
2023-12-11T07:15:53.951Z,100833.88
2023-12-11T07:18:21.865Z,100829.72
2023-12-11T07:20:48.729Z,100820.81
2023-12-11T07:23:15.209Z,100812.78
2023-12-11T07:25:41.835Z,100805.16
2023-12-11T07:28:08.425Z,100791.38
2023-12-11T07:30:34.964Z,100800.97
2023-12-11T07:33:01.696Z,100826.66
2023-12-11T07:35:28.220Z,100842.09
2023-12-11T07:37:54.781Z,100828.47
2023-12-11T07:40:21.486Z,100837.72
2023-12-11T07:42:48.073Z,100840.28
2023-12-11T07:45:15.205Z,100847.88
2023-12-11T07:47:42.119Z,100842.63
2023-12-11T07:50:10.560Z,100829.91
2023-12-11T07:52:37.111Z,100798.06
2023-12-11T07:55:03.982Z,100777.31
2023-12-11T07:57:30.816Z,100782.81
2023-12-11T07:59:57.511Z,100786.28
2023-12-11T08:02:24.006Z,100763.56
2023-12-11T08:04:50.628Z,100753.03
2023-12-11T08:07:19.587Z,100727.56
2023-12-11T08:09:46.222Z,100723.53
2023-12-11T08:12:12.722Z,100727.66
2023-12-11T08:14:39.759Z,100713.06
2023-12-11T08:17:07.587Z,100703.09
2023-12-11T08:19:34.776Z,100717.78
2023-12-11T08:22:01.907Z,100724.31
2023-12-11T08:24:28.720Z,100720.66
2023-12-11T08:26:55.602Z,100729.84
2023-12-11T08:29:26.800Z,100733.28
2023-12-11T08:31:53.432Z,100725.19
2023-12-11T08:34:20.974Z,100719.56
2023-12-11T08:36:47.578Z,100732.31
2023-12-11T08:39:14.192Z,100738.28
2023-12-11T08:41:40.712Z,100734.28
2023-12-11T08:44:07.244Z,100738.53
2023-12-11T08:46:33.918Z,100737.91
2023-12-11T08:49:00.602Z,100737.69
2023-12-11T08:51:27.202Z,100746.41
2023-12-11T08:53:53.770Z,100752.06
2023-12-11T08:56:21.467Z,100749.16
2023-12-11T08:58:48.029Z,100752.22
2023-12-11T09:01:14.743Z,100775.53
2023-12-11T09:03:41.722Z,100815.53
2023-12-11T09:06:08.670Z,100814.06
2023-12-11T09:08:35.257Z,100818.75
2023-12-11T09:11:01.870Z,100815.09
2023-12-11T09:13:29.750Z,100810.34
2023-12-11T09:15:58.169Z,100818.03
2023-12-11T09:18:25.262Z,100819.50
2023-12-11T09:20:51.893Z,100832.97
2023-12-11T09:23:18.409Z,100811.34
2023-12-11T09:25:45.118Z,100796.34
2023-12-11T09:28:12.086Z,100754.38
2023-12-11T09:30:38.698Z,100758.78
2023-12-11T09:33:05.272Z,100782.22
2023-12-11T09:35:32.076Z,100768.16
2023-12-11T09:37:58.653Z,100771.22
2023-12-11T09:40:25.396Z,100783.59
2023-12-11T09:42:52.194Z,100779.94
2023-12-11T09:45:22.853Z,100761.41
2023-12-11T09:48:04.463Z,100768.16
2023-12-11T09:50:39.068Z,100766.25
2023-12-11T09:53:05.945Z,100759.28
2023-12-11T09:55:32.477Z,100770.41
2023-12-11T09:57:59.889Z,100769.09
2023-12-11T10:00:27.311Z,100750.63
2023-12-11T10:02:55.367Z,100748.31
2023-12-11T10:05:26.090Z,100766.53
2023-12-11T10:07:52.911Z,100767.66
2023-12-11T10:10:32.925Z,100758.69
2023-12-11T10:13:00.030Z,100742.44
2023-12-11T10:15:29.405Z,100715.78
2023-12-11T10:18:10.661Z,100714.25
2023-12-11T10:20:42.492Z,100700.50
2023-12-11T10:23:22.987Z,100682.72
2023-12-11T10:25:51.386Z,100665.94
2023-12-11T10:28:20.634Z,100667.75
2023-12-11T10:30:51.434Z,100670.22
2023-12-11T10:33:19.792Z,100671.63
2023-12-11T10:35:47.104Z,100672.38
2023-12-11T10:38:22.222Z,100679.22
2023-12-11T10:40:50.353Z,100668.44
2023-12-11T10:43:17.575Z,100673.69
2023-12-11T10:45:46.388Z,100673.81
2023-12-11T10:48:14.294Z,100670.34
2023-12-11T10:50:41.904Z,100661.22
2023-12-11T10:53:09.629Z,100642.97
2023-12-11T10:55:39.524Z,100655.38
2023-12-11T10:58:09.222Z,100668.38
2023-12-11T11:00:37.727Z,100659.56
2023-12-11T11:03:08.482Z,100660.47
2023-12-11T11:05:36.066Z,100662.44
2023-12-11T11:08:27.210Z,100649.84
2023-12-11T11:10:59.515Z,100642.38
2023-12-11T11:13:34.175Z,100639.97
2023-12-11T11:16:00.898Z,100636.94
2023-12-11T11:18:27.489Z,100649.53
2023-12-11T11:21:13.899Z,100631.19
2023-12-11T11:23:43.434Z,100621.88
2023-12-11T11:26:34.549Z,100611.38
2023-12-11T11:29:03.366Z,100631.00
2023-12-11T11:31:53.365Z,100639.81
2023-12-11T11:34:41.544Z,100634.56
2023-12-11T11:37:10.811Z,100635.22
2023-12-11T11:40:06.306Z,100639.97
2023-12-11T11:42:34.629Z,100608.06
2023-12-11T11:45:06.469Z,100615.41
2023-12-11T11:47:33.652Z,100631.41
2023-12-11T11:50:09.281Z,100654.16
2023-12-11T11:52:42.383Z,100637.78
2023-12-11T11:55:26.270Z,100606.81
2023-12-11T11:57:54.011Z,100611.69
2023-12-11T12:00:30.415Z,100615.31
2023-12-11T12:03:02.069Z,100611.91
2023-12-11T12:05:28.811Z,100604.19
2023-12-11T12:07:55.682Z,100597.69
2023-12-11T12:10:22.797Z,100604.19
2023-12-11T12:12:56.573Z,100614.63
2023-12-11T12:15:24.149Z,100599.09
2023-12-11T12:17:51.582Z,100599.41
2023-12-11T12:20:18.714Z,100591.31
2023-12-11T12:22:59.231Z,100581.03
2023-12-11T12:25:30.111Z,100589.41
2023-12-11T12:28:11.262Z,100592.56
2023-12-11T12:30:37.936Z,100596.28
2023-12-11T12:33:09.255Z,100592.91
2023-12-11T12:35:38.170Z,100590.41
2023-12-11T12:38:06.853Z,100591.63
2023-12-11T12:40:37.288Z,100596.00
2023-12-11T12:43:11.328Z,100591.22
2023-12-11T12:45:38.413Z,100599.03
2023-12-11T12:48:06.107Z,100579.88
2023-12-11T12:50:33.961Z,100566.81
2023-12-11T12:53:15.000Z,100568.19
2023-12-11T12:55:42.080Z,100571.03
2023-12-11T12:58:09.263Z,100555.00
2023-12-11T13:00:36.670Z,100560.94
2023-12-11T13:03:04.604Z,100546.97
2023-12-11T13:05:45.018Z,100555.44
2023-12-11T13:08:11.918Z,100552.31
2023-12-11T13:10:38.836Z,100548.28
2023-12-11T13:13:12.861Z,100526.31
2023-12-11T13:15:43.412Z,100529.44
2023-12-11T13:18:16.254Z,100544.59
2023-12-11T13:20:43.270Z,100544.66
2023-12-11T13:23:10.415Z,100545.25
2023-12-11T13:25:36.878Z,100528.06
2023-12-11T13:28:03.448Z,100542.47
2023-12-11T13:30:30.005Z,100534.38
2023-12-11T13:32:56.513Z,100528.69
2023-12-11T13:35:23.016Z,100521.22
2023-12-11T13:37:49.566Z,100519.53
2023-12-11T13:40:17.558Z,100528.38
2023-12-11T13:42:44.300Z,100529.63
2023-12-11T13:45:10.990Z,100543.44
2023-12-11T13:47:37.625Z,100538.81
2023-12-11T13:50:05.049Z,100532.31
2023-12-11T13:52:31.721Z,100560.25
2023-12-11T13:54:58.251Z,100560.25
2023-12-11T13:57:24.728Z,100563.44
2023-12-11T13:59:51.253Z,100544.53
2023-12-11T14:02:57.943Z,100517.19
2023-12-11T14:05:05.877Z,100500.13
2023-12-11T14:07:33.115Z,100506.31
2023-12-11T14:10:00.337Z,100499.59
2023-12-11T14:12:27.018Z,100512.91
2023-12-11T14:14:53.560Z,100511.22
2023-12-11T14:17:20.088Z,100533.69
2023-12-11T14:19:47.183Z,100529.88
2023-12-11T14:22:14.008Z,100521.25
2023-12-11T14:24:42.987Z,100506.53
2023-12-11T14:27:14.473Z,100487.50
2023-12-11T14:29:43.827Z,100491.00
2023-12-11T14:32:11.040Z,100494.94
2023-12-11T14:34:42.813Z,100507.28
2023-12-11T14:37:11.171Z,100519.94
2023-12-11T14:39:38.974Z,100520.56
2023-12-11T14:42:06.513Z,100509.97
2023-12-11T14:44:37.422Z,100507.41
2023-12-11T14:47:04.356Z,100501.09
2023-12-11T14:49:30.981Z,100502.88
2023-12-11T14:51:58.208Z,100497.50
2023-12-11T14:54:25.379Z,100495.75
2023-12-11T14:56:52.162Z,100474.53
2023-12-11T14:59:18.986Z,100466.06
2023-12-11T15:01:46.430Z,100476.25
2023-12-11T15:04:13.000Z,100484.25
2023-12-11T15:06:41.283Z,100495.75
2023-12-11T15:09:08.201Z,100489.84
2023-12-11T15:11:35.979Z,100482.38
2023-12-11T15:14:05.691Z,100495.94
2023-12-11T15:16:35.670Z,100508.50
2023-12-11T15:19:02.187Z,100514.75
2023-12-11T15:21:30.112Z,100505.06
2023-12-11T15:23:56.723Z,100494.09
2023-12-11T15:26:23.165Z,100503.91
2023-12-11T15:28:49.650Z,100508.28
2023-12-11T15:31:25.588Z,100514.94
2023-12-11T15:33:52.438Z,100514.25
2023-12-11T15:36:22.043Z,100504.81
2023-12-11T15:38:48.876Z,100498.28
2023-12-11T15:41:15.766Z,100483.50
2023-12-11T15:43:43.108Z,100482.09
2023-12-11T15:46:10.218Z,100482.50
2023-12-11T15:48:38.636Z,100479.88
2023-12-11T15:51:13.351Z,100479.56
2023-12-11T15:53:39.994Z,100480.53
2023-12-11T15:56:06.877Z,100496.41
2023-12-11T15:58:33.494Z,100508.81
2023-12-11T16:01:00.120Z,100514.06
2023-12-11T16:03:26.787Z,100496.97
2023-12-11T16:05:53.937Z,100508.16
2023-12-11T16:08:20.466Z,100528.25
2023-12-11T16:10:46.936Z,100526.75
2023-12-11T16:13:13.434Z,100516.88
2023-12-11T16:15:39.898Z,100516.56
2023-12-11T16:18:06.535Z,100518.38
2023-12-11T16:20:33.094Z,100501.13
2023-12-11T16:22:59.576Z,100517.88
2023-12-11T16:25:26.134Z,100510.22
2023-12-11T16:27:52.657Z,100513.34
2023-12-11T16:30:19.129Z,100513.34
2023-12-11T16:32:45.704Z,100514.41
2023-12-11T16:35:12.481Z,100513.50
2023-12-11T16:37:38.990Z,100520.59
2023-12-11T16:40:09.437Z,100516.22
2023-12-11T16:42:36.412Z,100524.94
2023-12-11T16:45:04.662Z,100534.72
2023-12-11T16:47:31.726Z,100538.00
2023-12-11T16:50:06.476Z,100540.22
2023-12-11T16:52:35.175Z,100553.34
2023-12-11T16:55:01.887Z,100548.84
2023-12-11T16:57:30.222Z,100530.81
2023-12-11T16:59:57.046Z,100546.22
2023-12-11T17:02:23.795Z,100541.97
2023-12-11T17:04:50.863Z,100541.13
2023-12-11T17:07:20.782Z,100549.59
2023-12-11T17:09:47.446Z,100549.41
2023-12-11T17:12:13.976Z,100563.22
2023-12-11T17:14:40.503Z,100559.34
2023-12-11T17:17:06.946Z,100560.28
2023-12-11T17:19:33.568Z,100552.13
2023-12-11T17:22:00.111Z,100542.44
2023-12-11T17:24:26.628Z,100555.41
2023-12-11T17:26:53.580Z,100554.13
2023-12-11T17:29:20.209Z,100550.66
2023-12-11T17:31:46.666Z,100554.16
2023-12-11T17:34:13.338Z,100560.84
2023-12-11T17:36:39.902Z,100551.75
2023-12-11T17:39:06.393Z,100538.97
2023-12-11T17:41:32.841Z,100540.31
2023-12-11T17:43:59.398Z,100536.09
2023-12-11T17:46:25.934Z,100527.06
2023-12-11T17:48:52.485Z,100524.50
2023-12-11T17:51:19.010Z,100526.31
2023-12-11T17:53:45.591Z,100547.25
2023-12-11T17:56:15.269Z,100550.34
2023-12-11T17:58:42.732Z,100555.88
2023-12-11T18:01:09.551Z,100569.25
2023-12-11T18:03:36.516Z,100568.03
2023-12-11T18:06:03.197Z,100583.19
2023-12-11T18:08:29.832Z,100606.25
2023-12-11T18:10:56.366Z,100618.84
2023-12-11T18:13:22.872Z,100616.34
2023-12-11T18:15:50.196Z,100619.66
2023-12-11T18:18:17.816Z,100623.94
2023-12-11T18:20:44.291Z,100638.16
2023-12-11T18:23:10.778Z,100631.56
2023-12-11T18:25:37.346Z,100633.34
2023-12-11T18:28:04.651Z,100630.94
2023-12-11T18:30:31.187Z,100630.38
2023-12-11T18:32:57.820Z,100622.56
2023-12-11T18:35:24.448Z,100620.41
2023-12-11T18:37:50.988Z,100623.13
2023-12-11T18:40:17.579Z,100613.44
2023-12-11T18:42:45.973Z,100614.69
2023-12-11T18:45:12.649Z,100614.13
2023-12-11T18:47:39.191Z,100619.41
2023-12-11T18:50:06.384Z,100614.31
2023-12-11T18:52:33.039Z,100607.22
2023-12-11T18:54:59.557Z,100625.03
2023-12-11T18:57:26.810Z,100627.44
2023-12-11T18:59:53.727Z,100627.81
2023-12-11T19:02:20.348Z,100630.38
2023-12-11T19:04:47.074Z,100628.00
2023-12-11T19:07:14.387Z,100629.16
2023-12-11T19:09:40.880Z,100627.06
2023-12-11T19:12:07.570Z,100635.78
2023-12-11T19:14:34.037Z,100630.69
2023-12-11T19:17:00.682Z,100632.69
2023-12-11T19:19:27.200Z,100627.94
2023-12-11T19:21:54.063Z,100619.75
2023-12-11T19:24:20.681Z,100617.00
2023-12-11T19:26:47.169Z,100610.75
2023-12-11T19:29:15.628Z,100604.66
2023-12-11T19:31:43.329Z,100600.50
2023-12-11T19:34:10.966Z,100608.84
2023-12-11T19:36:42.639Z,100616.28
2023-12-11T19:39:10.478Z,100621.63
2023-12-11T19:41:37.157Z,100645.97
2023-12-11T19:44:06.487Z,100639.13
2023-12-11T19:46:32.972Z,100630.72
2023-12-11T19:48:59.837Z,100646.91
2023-12-11T19:51:30.081Z,100642.56
2023-12-11T19:53:57.572Z,100662.59
2023-12-11T19:56:24.210Z,100673.13
2023-12-11T19:58:50.799Z,100670.94
2023-12-11T20:01:29.414Z,100643.47
2023-12-11T20:03:56.501Z,100623.22
2023-12-11T20:06:27.499Z,100624.59
2023-12-11T20:08:54.682Z,100637.38
2023-12-11T20:11:21.842Z,100627.69
2023-12-11T20:13:50.361Z,100623.91
2023-12-11T20:16:18.195Z,100632.06
2023-12-11T20:18:45.106Z,100631.72
2023-12-11T20:21:11.805Z,100629.72
2023-12-11T20:23:38.345Z,100637.00
2023-12-11T20:26:06.744Z,100631.84
2023-12-11T20:28:33.825Z,100640.31
2023-12-11T20:31:00.779Z,100630.56
2023-12-11T20:33:27.436Z,100627.63
2023-12-11T20:35:54.678Z,100622.41
2023-12-11T20:38:21.212Z,100610.56
2023-12-11T20:40:48.584Z,100610.38
2023-12-11T20:43:15.368Z,100614.41
2023-12-11T20:45:42.020Z,100640.22
2023-12-11T20:48:08.523Z,100651.13
2023-12-11T20:50:36.082Z,100651.88
2023-12-11T20:53:02.638Z,100637.31
2023-12-11T20:55:29.269Z,100636.94
2023-12-11T20:57:55.910Z,100650.19
2023-12-11T21:00:22.553Z,100656.16
2023-12-11T21:02:49.258Z,100656.97
2023-12-11T21:05:16.404Z,100651.38
2023-12-11T21:07:44.350Z,100649.16
2023-12-11T21:10:11.175Z,100652.97
2023-12-11T21:12:37.741Z,100672.97
2023-12-11T21:15:04.743Z,100669.53
2023-12-11T21:17:31.845Z,100676.97
2023-12-11T21:19:58.730Z,100690.47
2023-12-11T21:22:25.367Z,100692.25
2023-12-11T21:24:52.048Z,100687.16
2023-12-11T21:27:18.720Z,100683.72
2023-12-11T21:29:45.374Z,100667.81
2023-12-11T21:32:11.851Z,100671.47
2023-12-11T21:34:43.180Z,100663.09
2023-12-11T21:37:09.830Z,100662.53
2023-12-11T21:39:36.881Z,100683.13
2023-12-11T21:42:04.787Z,100678.25
2023-12-11T21:44:31.496Z,100679.16
2023-12-11T21:46:58.089Z,100667.81
2023-12-11T21:49:24.812Z,100644.19
2023-12-11T21:51:51.724Z,100633.31
2023-12-11T21:54:22.735Z,100629.97
2023-12-11T21:56:49.282Z,100646.72
2023-12-11T21:59:17.079Z,100666.38
2023-12-11T22:01:44.349Z,100679.47
2023-12-11T22:04:12.920Z,100686.19
2023-12-11T22:06:39.402Z,100682.34
2023-12-11T22:09:06.107Z,100695.25
2023-12-11T22:11:32.579Z,100683.25
2023-12-11T22:13:59.113Z,100686.72
2023-12-11T22:16:26.358Z,100702.53
2023-12-11T22:18:53.106Z,100709.59
2023-12-11T22:21:28.716Z,100724.47
2023-12-11T22:23:55.140Z,100722.66
2023-12-11T22:26:22.597Z,100711.59
2023-12-11T22:28:49.117Z,100734.13
2023-12-11T22:31:15.783Z,100750.66
2023-12-11T22:33:42.358Z,100749.38
2023-12-11T22:36:09.035Z,100742.28
2023-12-11T22:38:35.492Z,100743.75
2023-12-11T22:41:02.630Z,100733.91
2023-12-11T22:43:29.374Z,100721.66
2023-12-11T22:45:55.924Z,100723.75
2023-12-11T22:48:22.559Z,100705.22
2023-12-11T22:50:49.127Z,100695.22
2023-12-11T22:53:15.650Z,100687.00
2023-12-11T22:55:42.193Z,100670.81
2023-12-11T22:58:15.877Z,100682.69
2023-12-11T23:00:43.686Z,100668.91
2023-12-11T23:03:10.477Z,100680.13
2023-12-11T23:05:37.124Z,100674.84
2023-12-11T23:08:03.832Z,100675.72
2023-12-11T23:10:30.341Z,100699.41
2023-12-11T23:12:56.914Z,100697.19
2023-12-11T23:15:23.452Z,100701.72
2023-12-11T23:17:50.107Z,100705.78
2023-12-11T23:20:16.689Z,100707.06
2023-12-11T23:22:43.156Z,100696.28
2023-12-11T23:25:09.946Z,100711.72
2023-12-11T23:27:36.443Z,100706.69
2023-12-11T23:30:07.414Z,100712.47
2023-12-11T23:32:35.333Z,100723.69
2023-12-11T23:35:03.608Z,100713.94
2023-12-11T23:37:30.388Z,100714.75
2023-12-11T23:39:57.101Z,100731.81
2023-12-11T23:42:23.593Z,100741.69
2023-12-11T23:44:50.194Z,100753.69
2023-12-11T23:47:16.944Z,100738.53
2023-12-11T23:49:43.557Z,100726.91
2023-12-11T23:52:10.149Z,100709.41
2023-12-11T23:54:36.625Z,100682.53
2023-12-11T23:57:03.301Z,100702.03
2023-12-11T23:59:29.787Z,100702.38
